Terminal Aerodrome Forecast
Issued by NWS

Home | Current Version | Previous Version | Text Only | Print | Product List | Glossary On
Versions: 1 2 3 4 5 6 7 8 9 10 11 12 13 14
000
FTUS45 KABQ 291100
TAFROW
TAF
KROW 291127Z 2912/3012 33004KT P6SM SKC
     FM291900 15007KT P6SM FEW200
     FM300300 35006KT P6SM FEW200
     FM300800 01013KT P6SM SCT200=

USA.gov is the U.S. government's official web portal to all federal, state and local government web resources and services.